createdAt,value
2023-04-21T00:01:03.855Z,8.27
2023-04-21T00:03:34.044Z,9.13
2023-04-21T00:06:02.652Z,8.20
2023-04-21T00:08:32.576Z,7.97
2023-04-21T00:11:00.965Z,8.63
2023-04-21T00:13:29.428Z,7.90
2023-04-21T00:15:57.874Z,8.47
2023-04-21T00:18:27.789Z,7.63
2023-04-21T00:20:56.435Z,7.83
2023-04-21T00:23:24.918Z,8.17
2023-04-21T00:25:54.688Z,8.27
2023-04-21T00:28:24.254Z,7.97
2023-04-21T00:30:54.410Z,8.07
2023-04-21T00:33:22.844Z,8.00
2023-04-21T00:35:51.282Z,8.27
2023-04-21T00:38:19.711Z,8.17
2023-04-21T00:40:48.123Z,8.00
2023-04-21T00:43:17.948Z,8.57
2023-04-21T00:45:47.321Z,8.10
2023-04-21T00:48:15.755Z,8.53
2023-04-21T00:50:44.233Z,8.13
2023-04-21T00:53:13.073Z,8.60
2023-04-21T00:55:41.525Z,8.37
2023-04-21T00:58:09.970Z,8.67
2023-04-21T01:00:40.098Z,9.10
2023-04-21T01:03:09.018Z,8.47
2023-04-21T01:05:37.972Z,8.17
2023-04-21T01:08:08.225Z,9.00
2023-04-21T01:10:36.664Z,8.97
2023-04-21T01:13:05.132Z,8.53
2023-04-21T01:15:33.891Z,8.23
2023-04-21T01:18:03.753Z,8.60
2023-04-21T01:20:32.236Z,8.73
2023-04-21T01:23:02.272Z,8.50
2023-04-21T01:25:30.692Z,8.87
2023-04-21T01:27:59.144Z,8.90
2023-04-21T01:30:27.702Z,9.40
2023-04-21T01:32:58.696Z,8.90
2023-04-21T01:35:27.364Z,9.47
2023-04-21T01:37:55.837Z,9.37
2023-04-21T01:40:25.640Z,9.27
2023-04-21T01:42:54.104Z,9.70
2023-04-21T01:45:22.507Z,9.83
2023-04-21T01:47:50.959Z,9.53
2023-04-21T01:50:19.542Z,10.17
2023-04-21T01:52:47.956Z,10.27
2023-04-21T01:55:16.447Z,9.60
2023-04-21T01:57:46.368Z,9.43
2023-04-21T02:00:15.261Z,9.87
2023-04-21T02:02:44.064Z,9.93
2023-04-21T02:05:12.630Z,9.57
2023-04-21T02:07:41.023Z,9.03
2023-04-21T02:10:09.765Z,9.27
2023-04-21T02:12:38.204Z,9.47
2023-04-21T02:15:09.093Z,10.30
2023-04-21T02:17:37.613Z,9.63
2023-04-21T02:20:06.976Z,9.77
2023-04-21T02:22:35.465Z,9.63
2023-04-21T02:25:04.021Z,9.93
2023-04-21T02:27:32.449Z,10.47
2023-04-21T02:30:01.057Z,10.07
2023-04-21T02:32:31.794Z,9.47
2023-04-21T02:35:00.335Z,9.80
2023-04-21T02:37:28.718Z,10.00
2023-04-21T02:39:57.105Z,10.30
2023-04-21T02:42:25.846Z,9.33
2023-04-21T02:44:54.258Z,10.33
2023-04-21T02:47:22.710Z,10.00
2023-04-21T02:49:52.550Z,9.23
2023-04-21T02:52:20.983Z,10.33
2023-04-21T02:54:49.459Z,9.97
2023-04-21T02:57:17.891Z,10.23
2023-04-21T02:59:46.295Z,10.30
2023-04-21T03:02:14.806Z,10.17
2023-04-21T03:04:43.310Z,10.10
2023-04-21T03:07:15.522Z,9.97
2023-04-21T03:09:44.029Z,9.70
2023-04-21T03:12:12.469Z,9.63
2023-04-21T03:14:40.876Z,9.97
2023-04-21T03:17:09.287Z,9.50
2023-04-21T03:19:37.755Z,9.20
2023-04-21T03:22:06.512Z,9.40
2023-04-21T03:24:36.784Z,9.37
2023-04-21T03:27:08.320Z,9.20
2023-04-21T03:29:38.331Z,9.17
2023-04-21T03:32:06.848Z,9.57
2023-04-21T03:34:35.300Z,9.23
2023-04-21T03:37:03.726Z,9.00
2023-04-21T03:39:32.157Z,9.40
2023-04-21T03:42:02.482Z,9.00
2023-04-21T03:44:31.207Z,9.60
2023-04-21T03:46:59.674Z,8.80
2023-04-21T03:49:28.134Z,9.27
2023-04-21T03:51:56.591Z,8.87
2023-04-21T03:54:24.984Z,8.53
2023-04-21T03:56:53.599Z,9.07
2023-04-21T03:59:23.422Z,8.83
2023-04-21T04:01:51.822Z,8.77
2023-04-21T04:04:20.377Z,9.17
2023-04-21T04:06:49.109Z,8.63
2023-04-21T04:09:17.658Z,8.67
2023-04-21T04:11:46.164Z,7.83
2023-04-21T04:14:14.579Z,8.10
2023-04-21T04:16:44.409Z,7.83
2023-04-21T04:19:13.548Z,7.83
2023-04-21T04:21:42.009Z,8.00
2023-04-21T04:24:11.556Z,8.27
2023-04-21T04:26:40.889Z,7.50
2023-04-21T04:29:10.636Z,7.93
2023-04-21T04:31:39.369Z,7.63
2023-04-21T04:34:09.725Z,7.53
2023-04-21T04:36:38.160Z,7.80
2023-04-21T04:39:08.976Z,7.73
2023-04-21T04:41:38.153Z,7.77
2023-04-21T04:44:06.708Z,7.40
2023-04-21T04:46:35.303Z,7.70
2023-04-21T04:49:03.926Z,7.20
2023-04-21T04:51:34.019Z,7.67
2023-04-21T04:54:02.444Z,7.23
2023-04-21T04:56:31.996Z,7.43
2023-04-21T04:59:00.763Z,7.40
2023-04-21T05:01:30.917Z,7.13
2023-04-21T05:03:59.766Z,7.03
2023-04-21T05:06:28.538Z,7.03
2023-04-21T05:08:58.343Z,7.30
2023-04-21T05:11:26.769Z,6.70
2023-04-21T05:13:55.248Z,7.00
2023-04-21T05:16:23.688Z,6.63
2023-04-21T05:18:54.038Z,7.30
2023-04-21T05:21:27.825Z,7.00
2023-04-21T05:23:58.083Z,7.00
2023-04-21T05:26:27.624Z,7.10
2023-04-21T05:28:57.076Z,6.70
2023-04-21T05:31:25.660Z,7.27
2023-04-21T05:33:54.136Z,6.37
2023-04-21T05:36:24.909Z,6.87
2023-04-21T05:38:54.150Z,6.63
2023-04-21T05:41:24.036Z,7.30
2023-04-21T05:43:52.498Z,7.00
2023-04-21T05:46:20.972Z,6.87
2023-04-21T05:48:49.481Z,7.00
2023-04-21T05:51:17.942Z,7.40
2023-04-21T05:53:47.031Z,6.43
2023-04-21T05:56:15.564Z,6.93
2023-04-21T05:58:45.635Z,6.57
2023-04-21T06:01:15.504Z,6.50
2023-04-21T06:03:44.055Z,6.60
2023-04-21T06:06:13.317Z,6.57
2023-04-21T06:08:41.742Z,6.13
2023-04-21T06:11:10.238Z,6.30
2023-04-21T06:13:39.815Z,6.90
2023-04-21T06:16:10.975Z,7.30
2023-04-21T06:18:39.431Z,7.47
2023-04-21T06:21:07.900Z,7.83
2023-04-21T06:23:36.312Z,7.03
2023-04-21T06:26:06.954Z,7.53
2023-04-21T06:28:36.009Z,7.63
2023-04-21T06:31:07.972Z,7.30
2023-04-21T06:33:38.872Z,7.03
2023-04-21T06:36:07.833Z,7.63
2023-04-21T06:38:36.471Z,8.33
2023-04-21T06:41:05.712Z,7.83
2023-04-21T06:43:34.095Z,7.10
2023-04-21T06:46:02.656Z,6.07
2023-04-21T06:48:31.198Z,7.37
2023-04-21T06:51:02.713Z,8.83
2023-04-21T06:53:31.317Z,7.33
2023-04-21T06:55:59.789Z,7.20
2023-04-21T06:58:28.198Z,8.23
2023-04-21T07:00:56.622Z,7.47
2023-04-21T07:03:25.408Z,5.73
2023-04-21T07:05:53.923Z,7.57
2023-04-21T07:08:23.715Z,8.53
2023-04-21T07:10:52.314Z,7.40
2023-04-21T07:13:20.785Z,7.67
2023-04-21T07:15:49.196Z,8.80
2023-04-21T07:18:17.672Z,8.40
2023-04-21T07:20:46.279Z,6.13
2023-04-21T07:23:14.731Z,7.83
2023-04-21T07:25:44.603Z,9.13
2023-04-21T07:28:15.136Z,8.47
2023-04-21T07:30:43.717Z,6.77
2023-04-21T07:33:12.288Z,9.47
2023-04-21T07:35:40.759Z,9.47
2023-04-21T07:38:09.164Z,7.37
2023-04-21T07:40:37.627Z,7.80
2023-04-21T07:43:07.399Z,8.80
2023-04-21T07:45:35.811Z,8.47
2023-04-21T07:48:06.181Z,6.87
2023-04-21T07:50:35.659Z,7.30
2023-04-21T07:53:04.086Z,9.03
2023-04-21T07:55:32.591Z,8.13
2023-04-21T07:58:01.004Z,6.73
2023-04-21T08:00:30.863Z,5.20
2023-04-21T08:02:59.446Z,6.90
2023-04-21T08:05:31.362Z,8.10
2023-04-21T08:08:02.076Z,6.67
2023-04-21T08:10:30.623Z,5.50
2023-04-21T08:12:59.110Z,6.20
2023-04-21T08:15:27.575Z,7.40
2023-04-21T08:17:57.401Z,7.63
2023-04-21T08:20:25.928Z,6.10
2023-04-21T08:22:54.386Z,4.53
2023-04-21T08:25:22.965Z,6.10
2023-04-21T08:27:52.329Z,7.50
2023-04-21T08:30:20.802Z,6.70
2023-04-21T08:32:49.245Z,5.70
2023-04-21T08:35:19.142Z,4.57
2023-04-21T08:37:47.623Z,6.22
2023-04-21T08:40:16.224Z,6.90
2023-04-21T08:42:44.679Z,7.18
2023-04-21T08:45:13.544Z,6.53
2023-04-21T08:47:42.917Z,5.38
2023-04-21T08:50:14.406Z,4.72
2023-04-21T08:52:44.812Z,6.55
2023-04-21T08:55:13.591Z,6.75
2023-04-21T08:57:42.068Z,6.40
2023-04-21T09:00:11.129Z,5.95
2023-04-21T09:03:00.251Z,5.35
2023-04-21T09:05:31.078Z,6.97
2023-04-21T09:08:10.942Z,6.38
2023-04-21T09:10:46.387Z,5.63
2023-04-21T09:13:14.991Z,6.47
2023-04-21T09:15:43.577Z,7.40
2023-04-21T09:18:15.814Z,7.20
2023-04-21T09:20:44.514Z,6.70
2023-04-21T09:23:14.385Z,6.25
2023-04-21T09:25:43.371Z,6.20
2023-04-21T09:28:13.248Z,8.18
2023-04-21T09:30:42.910Z,7.43
2023-04-21T09:33:28.029Z,6.28
2023-04-21T09:36:03.063Z,6.03
2023-04-21T09:38:32.999Z,6.82
2023-04-21T09:41:01.601Z,7.43
2023-04-21T09:43:30.297Z,6.63
2023-04-21T09:46:00.025Z,6.20
2023-04-21T09:48:30.840Z,5.50
2023-04-21T09:53:35.205Z,6.72
2023-04-21T09:56:04.390Z,6.00
2023-04-21T09:58:36.131Z,5.88
2023-04-21T10:01:05.000Z,6.20
2023-04-21T10:03:34.068Z,6.85
2023-04-21T10:06:02.678Z,7.30
2023-04-21T10:08:31.341Z,6.03
2023-04-21T10:11:01.648Z,5.50
2023-04-21T10:13:30.356Z,5.60
2023-04-21T10:16:05.328Z,6.32
2023-04-21T10:18:33.771Z,6.97
2023-04-21T10:21:03.962Z,6.22
2023-04-21T10:23:33.447Z,5.68
2023-04-21T10:26:11.262Z,5.15
2023-04-21T10:28:44.923Z,5.82
2023-04-21T10:31:20.464Z,7.32
2023-04-21T10:34:07.762Z,6.13
2023-04-21T10:36:36.634Z,5.72
2023-04-21T10:39:05.706Z,5.35
2023-04-21T10:41:36.002Z,5.38
2023-04-21T10:44:13.449Z,5.05
2023-04-21T10:46:42.569Z,6.60
2023-04-21T10:49:11.957Z,6.00
2023-04-21T10:51:59.054Z,5.30
2023-04-21T10:54:27.625Z,4.93
2023-04-21T10:56:58.083Z,5.20
2023-04-21T10:59:27.151Z,5.13
2023-04-21T11:01:56.578Z,4.90
2023-04-21T11:04:25.317Z,5.03
2023-04-21T11:07:07.515Z,6.57
2023-04-21T11:09:36.064Z,6.03
2023-04-21T11:12:07.480Z,5.47
2023-04-21T11:14:37.102Z,5.57
2023-04-21T11:17:06.046Z,5.30
2023-04-21T11:19:34.516Z,5.47
2023-04-21T11:22:02.970Z,6.35
2023-04-21T11:24:31.435Z,6.22
2023-04-21T11:27:01.255Z,5.78
2023-04-21T11:29:31.546Z,5.70
2023-04-21T11:32:00.725Z,5.93
2023-04-21T11:34:29.144Z,5.80
2023-04-21T11:36:57.591Z,6.20
2023-04-21T11:39:26.053Z,6.20
2023-04-21T11:41:54.589Z,5.75
2023-04-21T11:44:35.039Z,5.82
2023-04-21T11:47:14.017Z,5.68
2023-04-21T11:49:48.918Z,5.50
2023-04-21T11:52:27.350Z,5.68
2023-04-21T11:54:57.604Z,5.57
2023-04-21T11:57:26.509Z,5.70
2023-04-21T11:59:56.428Z,5.90
2023-04-21T12:02:28.625Z,5.63
2023-04-21T12:05:04.371Z,5.72
2023-04-21T12:07:33.362Z,6.03
2023-04-21T12:10:02.894Z,6.00
2023-04-21T12:12:31.666Z,5.88
2023-04-21T12:15:04.601Z,5.55
2023-04-21T12:17:36.947Z,5.80
2023-04-21T12:20:07.210Z,6.07
2023-04-21T12:22:35.803Z,5.97
2023-04-21T12:25:04.182Z,5.93
2023-04-21T12:27:32.755Z,5.93
2023-04-21T12:30:03.308Z,6.07
2023-04-21T12:32:31.811Z,5.75
2023-04-21T12:35:00.696Z,6.20
2023-04-21T12:37:29.220Z,5.65
2023-04-21T12:39:57.650Z,5.93
2023-04-21T12:42:26.102Z,6.10
2023-04-21T12:44:54.520Z,6.75
2023-04-21T12:47:24.941Z,5.53
2023-04-21T12:49:53.513Z,6.20
2023-04-21T12:52:21.922Z,6.55
2023-04-21T12:54:50.333Z,5.93
2023-04-21T12:57:18.882Z,6.22
2023-04-21T12:59:47.360Z,6.03
2023-04-21T13:02:15.899Z,6.53
2023-04-21T13:04:46.019Z,5.82
2023-04-21T13:07:16.124Z,5.97
2023-04-21T13:09:44.629Z,5.85
2023-04-21T13:12:13.036Z,5.65
2023-04-21T13:14:41.429Z,6.07
2023-04-21T13:17:09.893Z,6.07
2023-04-21T13:19:38.693Z,6.07
2023-04-21T13:22:08.676Z,5.53
2023-04-21T13:24:37.096Z,5.65
2023-04-21T13:27:05.566Z,5.70
2023-04-21T13:29:34.917Z,5.93
2023-04-21T13:32:03.417Z,5.70
2023-04-21T13:34:32.691Z,5.53
2023-04-21T13:37:01.396Z,5.60
2023-04-21T13:39:31.550Z,6.15
2023-04-21T13:42:00.188Z,5.78
2023-04-21T13:44:28.626Z,6.57
2023-04-21T13:46:57.400Z,6.00
2023-04-21T13:49:25.899Z,6.25
2023-04-21T13:51:54.324Z,5.68
2023-04-21T13:54:22.741Z,5.88
2023-04-21T13:56:53.239Z,5.82
2023-04-21T13:59:21.867Z,6.32
2023-04-21T14:01:50.332Z,5.93
2023-04-21T14:04:20.846Z,5.93
2023-04-21T14:06:50.766Z,5.47
2023-04-21T14:09:19.212Z,6.20
2023-04-21T14:11:47.619Z,6.10
2023-04-21T14:14:27.639Z,6.30
2023-04-21T14:17:05.903Z,6.43
2023-04-21T14:19:34.769Z,6.38
2023-04-21T14:22:03.620Z,6.07
2023-04-21T14:24:32.594Z,6.18
2023-04-21T14:27:01.473Z,6.00
2023-04-21T14:29:31.578Z,5.80
2023-04-21T14:32:00.253Z,6.22
2023-04-21T14:34:28.757Z,6.18
2023-04-21T14:36:57.278Z,6.00
2023-04-21T14:39:25.754Z,5.93
2023-04-21T14:41:54.175Z,5.55
2023-04-21T14:44:22.632Z,5.97
2023-04-21T14:47:01.454Z,5.68
2023-04-21T14:49:37.489Z,5.82
2023-04-21T14:52:07.124Z,5.28
2023-04-21T14:54:35.681Z,5.38
2023-04-21T14:57:18.673Z,5.60
2023-04-21T14:59:48.801Z,5.70
2023-04-21T15:02:19.062Z,5.20
2023-04-21T15:04:47.766Z,6.03
2023-04-21T15:07:19.902Z,5.55
2023-04-21T15:09:52.120Z,5.53
2023-04-21T15:12:20.698Z,5.45
2023-04-21T15:14:49.135Z,5.57
2023-04-21T15:17:19.066Z,5.63
2023-04-21T15:19:47.495Z,5.40
2023-04-21T15:22:16.195Z,5.57
2023-04-21T15:24:44.623Z,5.93
2023-04-21T15:27:13.196Z,5.55
2023-04-21T15:29:41.938Z,5.28
2023-04-21T15:32:10.438Z,5.50
2023-04-21T15:34:40.347Z,5.47
2023-04-21T15:37:08.788Z,5.72
2023-04-21T15:39:37.512Z,5.47
2023-04-21T15:42:06.402Z,5.50
2023-04-21T15:44:34.955Z,5.50
2023-04-21T15:47:03.554Z,5.38
2023-04-21T15:49:32.010Z,5.35
2023-04-21T15:52:01.909Z,5.60
2023-04-21T15:54:31.231Z,5.45
2023-04-21T15:56:59.701Z,5.53
2023-04-21T15:59:28.102Z,10.55
2023-04-21T16:01:57.922Z,9.32
2023-04-21T16:04:26.673Z,6.82
2023-04-21T16:06:55.183Z,6.68
2023-04-21T16:09:24.963Z,5.90
2023-04-21T16:11:53.486Z,6.10
2023-04-21T16:14:21.927Z,5.65
2023-04-21T16:16:50.539Z,6.45
2023-04-21T16:19:19.005Z,5.70
2023-04-21T16:21:47.596Z,5.40
2023-04-21T16:24:16.064Z,5.45
2023-04-21T16:26:45.905Z,5.43
2023-04-21T16:29:14.472Z,5.32
2023-04-21T16:31:42.954Z,5.35
2023-04-21T16:34:13.938Z,5.43
2023-04-21T16:36:42.560Z,5.18
2023-04-21T16:39:11.082Z,5.50
2023-04-21T16:41:39.505Z,4.88
2023-04-21T16:44:09.334Z,5.28
2023-04-21T16:46:37.827Z,5.28
2023-04-21T16:49:06.542Z,5.28
2023-04-21T16:51:35.001Z,5.32
2023-04-21T16:54:03.429Z,5.28
2023-04-21T16:56:31.874Z,6.20
2023-04-21T16:59:00.285Z,7.10
2023-04-21T17:01:30.154Z,7.97
2023-04-21T17:03:59.097Z,7.97
2023-04-21T17:06:27.639Z,8.35
2023-04-21T17:08:59.862Z,8.27
2023-04-21T17:11:29.944Z,7.97
2023-04-21T17:13:58.354Z,7.80
2023-04-21T17:16:26.915Z,8.07
2023-04-21T17:18:57.639Z,7.88
2023-04-21T17:21:27.416Z,7.60
2023-04-21T17:23:55.877Z,8.18
2023-04-21T17:26:24.248Z,7.35
2023-04-21T17:28:52.910Z,8.02
2023-04-21T17:31:21.488Z,8.15
2023-04-21T17:33:52.513Z,7.65
2023-04-21T17:36:22.410Z,7.85
2023-04-21T17:38:51.047Z,8.07
2023-04-21T17:41:20.051Z,7.63
2023-04-21T17:43:48.467Z,7.50
2023-04-21T17:46:16.992Z,7.78
2023-04-21T17:48:45.828Z,7.50
2023-04-21T17:51:14.846Z,7.93
2023-04-21T17:53:44.666Z,7.20
2023-04-21T17:56:14.436Z,7.68
2023-04-21T17:58:42.891Z,8.82
2023-04-21T18:01:11.347Z,10.05
2023-04-21T18:03:41.412Z,9.77
2023-04-21T18:06:11.766Z,10.15
2023-04-21T18:08:40.230Z,10.13
2023-04-21T18:11:11.505Z,10.48
2023-04-21T18:13:39.970Z,10.73
2023-04-21T18:16:08.715Z,9.40
2023-04-21T18:18:37.406Z,9.68
2023-04-21T18:21:05.987Z,9.55
2023-04-21T18:23:34.768Z,9.27
2023-04-21T18:26:03.191Z,8.90
2023-04-21T18:28:33.094Z,9.30
2023-04-21T18:31:01.737Z,9.23
2023-04-21T18:33:30.652Z,9.03
2023-04-21T18:35:59.682Z,9.47
2023-04-21T18:38:28.086Z,9.07
2023-04-21T18:40:57.165Z,9.10
2023-04-21T18:43:25.949Z,10.17
2023-04-21T18:45:55.782Z,10.57
2023-04-21T18:48:24.199Z,9.20
2023-04-21T18:50:52.677Z,9.77
2023-04-21T18:53:21.105Z,9.77
2023-04-21T18:55:49.507Z,9.63
2023-04-21T18:58:18.110Z,9.60
2023-04-21T19:00:46.519Z,9.93
2023-04-21T19:03:16.620Z,10.27
2023-04-21T19:05:45.113Z,9.77
2023-04-21T19:08:13.502Z,9.07
2023-04-21T19:10:42.721Z,8.87
2023-04-21T19:13:12.432Z,9.30
2023-04-21T19:15:40.906Z,8.27
2023-04-21T19:18:09.389Z,8.90
2023-04-21T19:20:39.274Z,9.07
2023-04-21T19:23:07.686Z,8.97
2023-04-21T19:25:37.561Z,8.73
2023-04-21T19:28:06.575Z,9.33
2023-04-21T19:30:35.072Z,8.33
2023-04-21T19:33:05.302Z,9.13
2023-04-21T19:35:34.034Z,8.80
2023-04-21T19:38:03.807Z,8.53
2023-04-21T19:40:32.211Z,9.13
2023-04-21T19:43:01.916Z,10.00
2023-04-21T19:45:30.405Z,10.90
2023-04-21T19:47:58.871Z,11.70
2023-04-21T19:50:27.539Z,12.60
2023-04-21T19:52:55.945Z,12.57
2023-04-21T19:55:25.768Z,13.47
2023-04-21T19:57:54.207Z,14.03
2023-04-21T20:00:22.799Z,14.00
2023-04-21T20:02:51.423Z,15.40
2023-04-21T20:05:20.017Z,15.20
2023-04-21T20:07:49.043Z,14.03
2023-04-21T20:10:17.617Z,14.47
2023-04-21T20:12:47.480Z,15.23
2023-04-21T20:15:17.024Z,14.53
2023-04-21T20:17:47.554Z,14.33
2023-04-21T20:20:16.361Z,14.87
2023-04-21T20:22:44.844Z,15.80
2023-04-21T20:25:13.635Z,15.40
2023-04-21T20:27:42.107Z,15.87
2023-04-21T20:30:12.317Z,15.27
2023-04-21T20:32:41.050Z,15.40
2023-04-21T20:35:11.801Z,15.50
2023-04-21T20:37:41.096Z,16.27
2023-04-21T20:40:11.751Z,17.10
2023-04-21T20:42:40.287Z,17.83
2023-04-21T20:45:09.452Z,18.60
2023-04-21T20:47:39.327Z,19.83
2023-04-21T20:50:08.405Z,18.40
2023-04-21T20:52:37.020Z,16.90
2023-04-21T20:55:05.514Z,17.97
2023-04-21T20:57:34.358Z,17.33
2023-04-21T21:00:05.529Z,19.03
2023-04-21T21:02:34.237Z,19.40
2023-04-21T21:05:04.336Z,18.03
2023-04-21T21:07:32.786Z,18.87
2023-04-21T21:10:01.206Z,19.20
2023-04-21T21:12:29.629Z,20.23
2023-04-21T21:14:58.043Z,17.77
2023-04-21T21:17:26.569Z,18.77
2023-04-21T21:19:55.035Z,17.43
2023-04-21T21:22:24.830Z,18.67
2023-04-21T21:24:53.218Z,19.30
2023-04-21T21:27:21.690Z,18.40
2023-04-21T21:29:50.270Z,18.20
2023-04-21T21:32:18.992Z,18.27
2023-04-21T21:34:47.573Z,18.87
2023-04-21T21:37:16.248Z,18.57
2023-04-21T21:39:46.051Z,18.53
2023-04-21T21:42:14.515Z,17.53
2023-04-21T21:44:42.911Z,17.37
2023-04-21T21:47:11.319Z,16.67
2023-04-21T21:49:40.030Z,17.90
2023-04-21T21:52:08.587Z,16.50
2023-04-21T21:54:37.329Z,15.90
2023-04-21T21:57:07.214Z,16.03
2023-04-21T21:59:35.843Z,15.87
2023-04-21T22:02:04.706Z,16.30
2023-04-21T22:04:33.710Z,16.33
2023-04-21T22:07:02.148Z,16.57
2023-04-21T22:09:30.549Z,16.03
2023-04-21T22:11:59.055Z,15.87
2023-04-21T22:14:29.920Z,15.70
2023-04-21T22:16:59.043Z,16.27
2023-04-21T22:19:27.492Z,17.20
2023-04-21T22:21:56.327Z,17.17
2023-04-21T22:24:25.044Z,16.57
2023-04-21T22:26:53.498Z,15.90
2023-04-21T22:29:22.282Z,16.50
2023-04-21T22:31:52.123Z,16.43
2023-04-21T22:34:20.745Z,16.43
2023-04-21T22:36:49.136Z,16.57
2023-04-21T22:39:17.561Z,16.03
2023-04-21T22:41:46.015Z,15.40
2023-04-21T22:44:14.602Z,15.17
2023-04-21T22:46:43.311Z,15.33
2023-04-21T22:49:13.153Z,16.47
2023-04-21T22:51:42.317Z,16.23
2023-04-21T22:54:10.812Z,16.27
2023-04-21T22:56:39.346Z,17.17
2023-04-21T22:59:08.327Z,17.10
2023-04-21T23:01:36.915Z,16.80
2023-04-21T23:04:05.464Z,16.63
2023-04-21T23:06:35.355Z,16.93
2023-04-21T23:09:04.173Z,17.87
2023-04-21T23:11:32.889Z,18.47
2023-04-21T23:14:01.316Z,17.50
2023-04-21T23:16:29.746Z,17.20
2023-04-21T23:18:58.183Z,16.50
2023-04-21T23:21:26.687Z,16.80
2023-04-21T23:23:56.562Z,16.60
2023-04-21T23:26:25.024Z,16.07
2023-04-21T23:28:53.493Z,16.27
2023-04-21T23:31:22.041Z,16.43
2023-04-21T23:33:50.471Z,17.47
2023-04-21T23:36:18.841Z,18.20
2023-04-21T23:38:47.276Z,19.07
2023-04-21T23:41:17.108Z,18.27
2023-04-21T23:43:45.530Z,18.03
2023-04-21T23:46:15.108Z,17.83
2023-04-21T23:48:43.653Z,16.97
2023-04-21T23:51:12.324Z,17.90
2023-04-21T23:53:40.852Z,17.33
2023-04-21T23:56:09.470Z,17.40
2023-04-21T23:58:39.289Z,17.37
